ADDS METAR Data INFO
IDs: Format: Raw Decoded Include TAF

Data at: 2301 UTC 21 Feb 2018

KBML 212252Z AUTO 31007G17KT 280V350 10SM FEW030 OVC049 09/03 A3023 RMK AO2 SLP246 T00940033
KBML 212202Z AUTO 32009G16KT 10SM FEW021 SCT026 OVC038 11/06 A3018 RMK AO2 PRESRR T01060056
KBML 212152Z AUTO 33012G22KT 10SM BKN021 BKN027 OVC035 11/06 A3016 RMK AO2 RAE20 SLP223 P0000 T01110061
KBML 212104Z AUTO VRB04KT 6SM -RA BR FEW015 BKN021 OVC042 11/09 A3011 RMK AO2 P0000 T01110094
KBML 212052Z AUTO VRB05KT 5SM -RA SCT019 BKN030 OVC040 12/09 A3010 RMK AO2 WSHFT 2001 RAB1957 SLP200 P0000 60000 T01220094 51045
KBML 212049Z AUTO 32005KT 7SM -RA SCT019 BKN030 OVC040 12/09 A3010 RMK AO2 WSHFT 2001 RAB1957 P0000
KBML 212021Z AUTO 33012KT 10SM -RA SCT023 BKN028 OVC040 14/11 A3005 RMK AO2 WSHFT 2001 RAB1957 PRESRR P0000 T01440106
KBML 211952Z AUTO 25007G17KT 210V280 10SM SCT049 BKN060 OVC090 19/10 A2999 RMK AO2 SLP160 T01940100
KBML 211852Z AUTO 24013G20KT 210V290 10SM CLR 19/10 A2996 RMK AO2 SLP150 T01940100
KBML 211752Z AUTO 22012G20KT 10SM CLR 19/10 A2998 RMK AO2 PK WND 20026/1727 SLP156 T01940100 10194 20000 58026
KBML 211652Z AUTO 20012G23KT 10SM CLR 19/11 A3001 RMK AO2 SLP167 T01890106
KBML 211552Z AUTO 32003KT 10SM FEW045 13/09 A3004 RMK AO2 SLP179 T01280094
KBML 211452Z AUTO 00000KT 10SM CLR 10/08 A3006 RMK AO2 SLP188 T01000078 58012
KBML 211352Z AUTO 00000KT 10SM CLR 05/04 A3008 RMK AO2 SLP199 T00500044
KBML 211252Z AUTO 00000KT 6SM BR CLR 02/02 A3009 RMK AO2 SLP201 T00170017
KBML 210752Z AUTO 00000KT 1/2SM FG VV002 02/01 A3015 RMK AO2 SLP223 T00170011
KBML 210723Z AUTO 00000KT 1/2SM FG VV002 02/01 A3016 RMK AO2 T00170011
KBML 210713Z AUTO 00000KT 3/4SM BR SCT002 BKN055 02/02 A3016 RMK AO2 T00170017
KBML 210709Z AUTO 00000KT 1 1/2SM BR FEW002 SCT045 SCT055 02/02 A3017 RMK AO2 T00170017
KBML 210652Z AUTO 00000KT 1SM BR SCT002 BKN048 OVC060 02/02 A3017 RMK AO2 SLP228 T00220022
KBML 210559Z AUTO 00000KT 3/4SM BR FEW002 BKN045 OVC065 02/02 A3018 RMK AO2 T00170017
KBML 210552Z AUTO 00000KT 1 1/4SM BR FEW034 OVC047 02/02 A3019 RMK AO2 SLP235 60000 T00220022 10028 20017 58001
KBML 201511Z AUTO 00000KT 4SM BR OVC006 04/03 A3018 RMK AO2 RAE09 P0000 T00390028
KBML 201502Z AUTO 00000KT 2SM -RA BR OVC006 03/03 A3018 RMK AO2 P0000 T00330028
KBML 201452Z AUTO 00000KT 1SM -RA BR BKN006 OVC013 03/03 A3019 RMK AO2 SLP235 P0002 60003 T00280028 58001
KBML 201442Z AUTO 00000KT 1 1/4SM -RA BR OVC006 03/03 A3019 RMK AO2 P0002 T00280028
KBML 201425Z AUTO 00000KT 1/2SM -RA FG OVC006 02/02 A3020 RMK AO2 P0001 T00220022
KBML 201417Z AUTO 00000KT 1/4SM -RA FG OVC006 03/03 A3020 RMK AO2 P0000 T00280028
KBML 201404Z AUTO 00000KT 3/4SM -RA BR OVC006 03/02 A3020 RMK AO2 P0000 T00280022
KBML 201352Z AUTO 00000KT 1/2SM -RA FG OVC004 02/02 A3020 RMK AO2 RAE00B11 SLP239 P0000 T00220022
KBML 201343Z AUTO 00000KT 3/4SM -RA BR OVC004 02/02 A3020 RMK AO2 RAE00B11 P0000 T00220017
KBML 201328Z AUTO 00000KT 3/4SM -RA BR OVC005 02/02 A3021 RMK AO2 RAE00B11 P0000 T00220017
KBML 201300Z AUTO 00000KT 1/4SM FG OVC008 02/02 A3021 RMK AO2 RAE00 P0000 T00220017
KBML 201252Z AUTO 00000KT 1/2SM -RA FG BKN008 OVC012 02/02 A3021 RMK AO2 SLP243 P0001 T00170017
KBML 201232Z AUTO 00000KT 1/2SM -RA FG OVC005 02/02 A3020 RMK AO2 P0000 T00170017 $
KBML 201216Z AUTO 00000KT 1 1/4SM -RA BR OVC006 02/02 A3020 RMK AO2 P0000 T00220017 $
KBML 201152Z AUTO 00000KT 3/4SM -RA BR OVC006 02/02 A3019 RMK AO2 SLP236 P0001 60005 70007 T00170017 10022 20011 51011 $
KBML 201135Z AUTO 00000KT 3/4SM -RA BR BKN004 OVC008 02/02 A3018 RMK AO2 P0001 T00170017 $
KBML 201124Z AUTO 00000KT 1 1/4SM -RA BR OVC004 02/02 A3018 RMK AO2 P0001 T00170017 $
KBML 201121Z AUTO 00000KT 1 1/2SM -RA BR OVC005 02/02 A3018 RMK AO2 CIG 003V007 P0001 T00170017 $
KBML 201111Z AUTO 00000KT 2SM -RA BR OVC005 02/02 A3017 RMK AO2 P0001 T00220017 $